Terminal Aerodrome Forecast
Issued by NWS Pocatello, ID

Home | Current Version | Previous Version | Text Only | Print | Product List | Glossary On
Versions: 1 2 3 4 5 6 7 8 9 10 11 12 13 14 15
000
FTUS45 KPIH 311700
TAFIDA
TAF
KIDA 311731Z 3118/0118 01008KT P6SM BKN200
     FM312000 20010G18KT P6SM BKN200
     FM011000 19014G22KT P6SM VCSH BKN060 BKN120
     FM011600 19020G30KT P6SM VCSH SCT030 OVC050=

USA.gov is the U.S. government's official web portal to all federal, state and local government web resources and services.